CheckWX is a tool to help pilots better visualize weather data.  It is not intended as a substitute for an official pre-flight weather briefing.

17:05:48 UTC

GVBA TAF
Rabil Airport
Rabil, Cape Verde
TAF GVBA 061100Z 0612/0718 03018KT 9999 BKN015

Apr-6@
12:00 UTC

Apr-6 @ 12:00 UTC

Apr-7@
18:00 UTC

Apr-7 @ 18:00 UTC

TAF GVBA 061100Z 0612/0718 03018KT 9999 BKN015
Wind
  • 030° at 18 KTS
Cloud Levels
  • Broken at 1,500' AGL